createdAt,value
2022-08-29T00:00:50.566Z,12.19
2022-08-29T00:03:18.748Z,12.18
2022-08-29T00:05:50.046Z,12.05
2022-08-29T00:08:18.562Z,11.88
2022-08-29T00:11:47.883Z,11.70
2022-08-29T00:14:20.860Z,11.78
2022-08-29T00:16:51.124Z,11.46
2022-08-29T00:19:19.081Z,11.57
2022-08-29T00:21:46.792Z,11.69
2022-08-29T00:24:16.115Z,11.37
2022-08-29T00:26:44.858Z,11.15
2022-08-29T00:29:12.800Z,11.43
2022-08-29T00:31:42.235Z,11.60
2022-08-29T00:34:10.103Z,11.77
2022-08-29T00:36:40.143Z,11.68
2022-08-29T00:39:09.189Z,11.91
2022-08-29T00:41:39.028Z,12.10
2022-08-29T00:44:07.111Z,11.88
2022-08-29T00:46:47.476Z,11.88
2022-08-29T00:49:24.505Z,11.77
2022-08-29T00:51:52.618Z,11.62
2022-08-29T00:54:20.671Z,11.53
2022-08-29T00:56:48.581Z,11.70
2022-08-29T00:59:18.963Z,11.79
2022-08-29T01:01:48.253Z,11.75
2022-08-29T01:04:24.332Z,11.67
2022-08-29T01:06:53.054Z,11.34
2022-08-29T01:09:21.413Z,11.56
2022-08-29T01:12:06.962Z,11.61
2022-08-29T01:14:38.567Z,11.66
2022-08-29T01:17:09.364Z,11.69
2022-08-29T01:19:42.978Z,11.73
2022-08-29T01:22:29.546Z,11.82
2022-08-29T01:25:00.583Z,11.86
2022-08-29T01:27:31.708Z,11.84
2022-08-29T01:29:59.751Z,11.66
2022-08-29T01:32:27.971Z,11.65
2022-08-29T01:34:56.935Z,11.71
2022-08-29T01:37:26.481Z,11.81
2022-08-29T01:39:54.310Z,11.49
2022-08-29T01:42:24.831Z,11.52
2022-08-29T01:44:55.350Z,11.58
2022-08-29T01:47:27.779Z,11.47
2022-08-29T01:49:55.845Z,11.19
2022-08-29T01:56:10.858Z,11.19
2022-08-29T01:58:42.173Z,11.09
2022-08-29T02:01:10.788Z,11.07
2022-08-29T02:03:40.626Z,11.02
2022-08-29T02:06:10.147Z,10.75
2022-08-29T02:08:38.524Z,11.17
2022-08-29T02:11:10.173Z,11.03
2022-08-29T02:13:38.176Z,11.07
2022-08-29T02:16:10.432Z,11.15
2022-08-29T02:18:38.677Z,11.24
2022-08-29T02:21:06.720Z,10.94
2022-08-29T02:23:36.206Z,10.51
2022-08-29T02:26:05.200Z,10.48
2022-08-29T02:28:33.754Z,10.62
2022-08-29T02:31:01.821Z,10.88
2022-08-29T02:33:31.358Z,10.62
2022-08-29T02:36:00.296Z,10.35
2022-08-29T02:38:31.582Z,10.24
2022-08-29T02:40:59.579Z,10.12
2022-08-29T02:43:28.438Z,10.24
2022-08-29T02:45:56.415Z,10.07
2022-08-29T02:48:24.422Z,10.05
2022-08-29T02:50:55.336Z,10.03
2022-08-29T02:53:25.333Z,10.07
2022-08-29T02:55:53.385Z,10.12
2022-08-29T02:58:21.710Z,10.17
2022-08-29T03:00:50.412Z,10.03
2022-08-29T03:03:19.395Z,10.10
2022-08-29T03:05:48.067Z,10.57
2022-08-29T03:08:18.859Z,10.64
2022-08-29T03:10:47.062Z,10.54
2022-08-29T03:13:14.942Z,10.54
2022-08-29T03:15:43.617Z,10.22
2022-08-29T03:18:12.059Z,9.96
2022-08-29T03:20:40.226Z,10.16
2022-08-29T03:23:08.322Z,10.18
2022-08-29T03:25:38.640Z,10.46
2022-08-29T03:28:06.598Z,10.47
2022-08-29T03:30:34.475Z,10.52
2022-08-29T03:33:02.600Z,10.64
2022-08-29T03:35:30.330Z,10.82
2022-08-29T03:37:58.414Z,10.89
2022-08-29T03:40:26.920Z,10.94
2022-08-29T03:42:56.628Z,11.04
2022-08-29T03:45:25.763Z,11.05
2022-08-29T03:47:54.051Z,11.06
2022-08-29T03:50:22.496Z,10.70
2022-08-29T03:52:50.292Z,10.68
2022-08-29T03:55:20.267Z,10.56
2022-08-29T03:57:48.763Z,10.44
2022-08-29T04:00:19.927Z,10.45
2022-08-29T04:02:49.328Z,10.16
2022-08-29T04:05:18.938Z,10.30
2022-08-29T04:07:50.329Z,10.17
2022-08-29T04:10:22.002Z,9.81
2022-08-29T04:12:54.469Z,9.98
2022-08-29T04:15:25.846Z,9.97
2022-08-29T04:17:55.252Z,9.87
2022-08-29T04:20:25.895Z,9.90
2022-08-29T04:22:54.546Z,9.72
2022-08-29T04:25:25.163Z,10.12
2022-08-29T04:27:53.441Z,10.02
2022-08-29T04:30:25.056Z,10.23
2022-08-29T04:32:53.472Z,10.52
2022-08-29T04:35:21.960Z,10.66
2022-08-29T04:37:50.038Z,10.77
2022-08-29T04:40:19.876Z,10.91
2022-08-29T04:42:48.522Z,10.94
2022-08-29T04:45:18.934Z,10.70
2022-08-29T04:47:48.184Z,11.18
2022-08-29T04:50:19.558Z,11.15
2022-08-29T04:52:48.660Z,11.07
2022-08-29T04:55:21.548Z,10.76
2022-08-29T04:57:51.544Z,10.75
2022-08-29T05:00:22.454Z,10.98
2022-08-29T05:02:51.905Z,10.83
2022-08-29T05:05:19.963Z,10.69
2022-08-29T05:07:48.849Z,10.73
2022-08-29T05:10:20.030Z,10.81
2022-08-29T05:13:49.295Z,10.83
2022-08-29T05:16:18.892Z,11.24
2022-08-29T05:18:48.639Z,11.37
2022-08-29T05:21:25.833Z,11.23
2022-08-29T05:23:54.566Z,11.35
2022-08-29T05:26:22.721Z,11.10
2022-08-29T05:28:51.805Z,11.53
2022-08-29T05:31:21.145Z,12.05
2022-08-29T05:33:50.712Z,12.17
2022-08-29T05:36:18.812Z,12.24
2022-08-29T05:38:46.713Z,12.26
2022-08-29T05:41:15.676Z,12.62
2022-08-29T05:43:43.577Z,12.77
2022-08-29T05:46:12.527Z,12.58
2022-08-29T05:48:42.359Z,12.90
2022-08-29T05:51:18.064Z,13.19
2022-08-29T05:53:46.628Z,13.27
2022-08-29T05:56:22.001Z,13.18
2022-08-29T05:58:50.220Z,13.22
2022-08-29T06:01:23.713Z,13.46
2022-08-29T06:03:54.656Z,13.76
2022-08-29T06:06:27.996Z,13.96
2022-08-29T06:08:57.241Z,14.15
2022-08-29T06:11:26.539Z,14.03
2022-08-29T06:13:54.665Z,14.42
2022-08-29T06:16:24.253Z,14.47
2022-08-29T06:18:54.586Z,14.56
2022-08-29T06:21:22.919Z,14.64
2022-08-29T06:23:52.312Z,14.76
2022-08-29T06:26:20.968Z,14.79
2022-08-29T06:28:49.375Z,14.86
2022-08-29T06:31:20.710Z,14.87
2022-08-29T06:33:49.045Z,15.03
2022-08-29T06:36:18.810Z,15.08
2022-08-29T06:38:48.235Z,15.29
2022-08-29T06:41:18.750Z,15.44
2022-08-29T06:43:46.942Z,15.61
2022-08-29T06:46:23.619Z,15.74
2022-08-29T06:48:52.115Z,15.87
2022-08-29T06:51:20.053Z,16.08
2022-08-29T06:53:48.513Z,15.95
2022-08-29T06:56:18.987Z,15.85
2022-08-29T06:58:46.903Z,16.05
2022-08-29T07:01:16.745Z,16.32
2022-08-29T07:03:44.753Z,16.17
2022-08-29T07:06:13.177Z,16.15
2022-08-29T07:08:46.743Z,16.50
2022-08-29T07:11:25.366Z,16.76
2022-08-29T07:13:53.076Z,16.96
2022-08-29T07:16:21.015Z,16.93
2022-08-29T07:18:52.178Z,16.90
2022-08-29T07:21:21.641Z,16.94
2022-08-29T07:23:50.001Z,16.96
2022-08-29T07:26:19.466Z,16.66
2022-08-29T07:28:49.648Z,16.74
2022-08-29T07:31:17.577Z,16.57
2022-08-29T07:33:45.662Z,16.60
2022-08-29T07:36:13.631Z,16.72
2022-08-29T07:38:41.626Z,16.68
2022-08-29T07:41:12.094Z,16.50
2022-08-29T07:43:41.132Z,16.53
2022-08-29T07:46:11.956Z,16.60
2022-08-29T07:48:40.402Z,16.70
2022-08-29T07:51:10.639Z,16.66
2022-08-29T07:53:38.796Z,16.74
2022-08-29T07:56:08.189Z,16.95
2022-08-29T07:59:37.435Z,16.89
2022-08-29T08:02:08.803Z,17.05
2022-08-29T08:04:36.652Z,17.40
2022-08-29T08:07:04.843Z,17.55
2022-08-29T08:09:41.352Z,17.76
2022-08-29T08:12:09.903Z,17.88
2022-08-29T08:14:38.185Z,17.94
2022-08-29T08:17:07.570Z,17.99
2022-08-29T08:19:36.395Z,18.30
2022-08-29T08:22:04.056Z,18.44
2022-08-29T08:24:33.891Z,18.54
2022-08-29T08:27:02.031Z,18.81
2022-08-29T08:29:29.944Z,18.74
2022-08-29T08:32:00.096Z,18.68
2022-08-29T08:34:30.422Z,18.22
2022-08-29T08:36:58.318Z,18.75
2022-08-29T08:39:26.080Z,18.87
2022-08-29T08:41:57.135Z,18.76
2022-08-29T08:44:55.734Z,18.82
2022-08-29T08:47:27.041Z,19.33
2022-08-29T08:50:02.778Z,19.66
2022-08-29T08:52:35.802Z,19.48
2022-08-29T08:55:06.769Z,19.50
2022-08-29T08:57:39.715Z,19.63
2022-08-29T09:00:10.908Z,19.32
2022-08-29T09:02:47.532Z,19.30
2022-08-29T09:05:30.044Z,19.30
2022-08-29T09:08:02.779Z,19.45
2022-08-29T09:10:39.113Z,19.70
2022-08-29T09:13:13.773Z,19.52
2022-08-29T09:15:44.694Z,19.26
2022-08-29T09:18:23.807Z,19.59
2022-08-29T09:20:54.240Z,19.46
2022-08-29T09:23:28.394Z,19.46
2022-08-29T09:25:56.821Z,19.34
2022-08-29T09:28:24.805Z,19.20
2022-08-29T09:31:16.454Z,19.28
2022-08-29T09:33:46.815Z,19.13
2022-08-29T09:36:47.913Z,19.04
2022-08-29T09:39:24.386Z,19.05
2022-08-29T09:41:54.465Z,19.10
2022-08-29T09:44:26.834Z,18.50
2022-08-29T09:47:15.884Z,19.52
2022-08-29T09:50:03.370Z,19.73
2022-08-29T09:52:32.968Z,19.61
2022-08-29T09:55:19.665Z,19.99
2022-08-29T09:57:52.351Z,20.09
2022-08-29T10:00:27.713Z,19.99
2022-08-29T10:02:57.811Z,19.92
2022-08-29T10:05:38.141Z,20.04
2022-08-29T10:08:26.547Z,19.76
2022-08-29T10:10:57.010Z,20.15
2022-08-29T10:13:31.876Z,20.49
2022-08-29T10:16:08.835Z,20.92
2022-08-29T10:18:45.201Z,20.85
2022-08-29T10:21:20.503Z,20.90
2022-08-29T10:24:00.850Z,21.27
2022-08-29T10:26:36.106Z,21.21
2022-08-29T10:29:14.038Z,21.45
2022-08-29T10:31:49.547Z,21.31
2022-08-29T10:34:31.263Z,21.64
2022-08-29T10:37:03.221Z,21.63
2022-08-29T10:39:40.762Z,22.12
2022-08-29T10:42:11.008Z,22.28
2022-08-29T10:44:50.980Z,22.80
2022-08-29T10:47:27.305Z,21.28
2022-08-29T10:50:10.189Z,22.10
2022-08-29T10:52:51.131Z,22.74
2022-08-29T10:55:24.441Z,22.75
2022-08-29T10:58:01.670Z,23.45
2022-08-29T11:00:34.257Z,23.63
2022-08-29T11:03:08.338Z,23.82
2022-08-29T11:05:42.255Z,23.15
2022-08-29T11:08:16.157Z,23.62
2022-08-29T11:10:52.061Z,22.77
2022-08-29T11:13:23.298Z,23.46
2022-08-29T11:15:59.467Z,23.79
2022-08-29T11:18:31.354Z,23.48
2022-08-29T11:21:01.718Z,23.82
2022-08-29T11:23:35.656Z,23.52
2022-08-29T11:26:09.904Z,23.13
2022-08-29T11:31:13.901Z,23.55
2022-08-29T11:33:47.835Z,24.52
2022-08-29T11:36:33.452Z,24.50
2022-08-29T11:39:19.450Z,24.10
2022-08-29T11:41:50.250Z,24.08
2022-08-29T11:44:25.530Z,24.37
2022-08-29T11:46:56.950Z,24.39
2022-08-29T11:49:29.771Z,24.84
2022-08-29T11:52:00.399Z,24.61
2022-08-29T11:55:10.891Z,24.08
2022-08-29T11:57:51.479Z,24.29
2022-08-29T12:00:53.886Z,23.82
2022-08-29T12:03:46.209Z,23.64
2022-08-29T12:06:23.181Z,24.22
2022-08-29T12:09:00.675Z,23.82
2022-08-29T12:12:22.949Z,23.91
2022-08-29T12:14:53.254Z,24.59
2022-08-29T12:18:01.469Z,23.96
2022-08-29T12:20:40.830Z,25.34
2022-08-29T12:23:20.089Z,25.02
2022-08-29T12:26:03.714Z,24.74
2022-08-29T12:28:48.889Z,25.81
2022-08-29T12:31:39.095Z,25.20
2022-08-29T12:34:29.983Z,25.63
2022-08-29T12:37:20.117Z,26.04
2022-08-29T12:40:29.839Z,25.33
2022-08-29T12:43:19.006Z,26.76
2022-08-29T12:45:48.476Z,26.70
2022-08-29T12:48:22.960Z,25.86
2022-08-29T12:50:50.847Z,25.34
2022-08-29T12:53:20.588Z,25.71
2022-08-29T12:55:52.373Z,24.44
2022-08-29T12:58:35.588Z,23.11
2022-08-29T13:01:03.651Z,24.21
2022-08-29T13:03:33.366Z,25.46
2022-08-29T13:06:06.416Z,25.58
2022-08-29T13:08:38.308Z,26.61
2022-08-29T13:11:09.436Z,27.35
2022-08-29T13:13:37.955Z,28.23
2022-08-29T13:16:08.656Z,28.24
2022-08-29T13:19:00.127Z,29.37
2022-08-29T13:21:31.672Z,28.48
2022-08-29T13:24:05.895Z,30.20
2022-08-29T13:26:35.048Z,31.12
2022-08-29T13:29:17.873Z,31.82
2022-08-29T13:31:45.822Z,31.71
2022-08-29T13:34:22.150Z,30.32
2022-08-29T13:37:02.455Z,30.45
2022-08-29T13:39:41.175Z,31.80
2022-08-29T13:42:18.502Z,30.93
2022-08-29T13:45:09.635Z,28.53
2022-08-29T13:47:53.444Z,30.19
2022-08-29T13:50:23.484Z,28.98
2022-08-29T13:52:52.555Z,29.25
2022-08-29T13:55:21.059Z,29.06
2022-08-29T13:57:51.329Z,29.72
2022-08-29T14:00:32.041Z,29.82
2022-08-29T14:03:04.197Z,26.35
2022-08-29T14:05:35.352Z,25.97
2022-08-29T14:08:03.679Z,27.09
2022-08-29T14:11:35.556Z,27.05
2022-08-29T14:14:03.171Z,29.70
2022-08-29T14:16:30.989Z,30.22
2022-08-29T14:18:58.937Z,31.28
2022-08-29T14:21:28.636Z,31.33
2022-08-29T14:23:56.443Z,31.89
2022-08-29T14:26:25.525Z,31.26
2022-08-29T14:28:53.362Z,30.26
2022-08-29T14:31:21.233Z,30.80
2022-08-29T14:33:51.639Z,33.10
2022-08-29T14:36:20.898Z,32.83
2022-08-29T14:38:56.686Z,32.77
2022-08-29T14:41:25.656Z,31.36
2022-08-29T14:43:54.106Z,29.31
2022-08-29T14:46:23.152Z,29.85
2022-08-29T14:48:50.867Z,28.97
2022-08-29T14:51:18.870Z,26.79
2022-08-29T14:53:54.221Z,27.05
2022-08-29T14:56:46.979Z,27.43
2022-08-29T14:59:16.366Z,30.95
2022-08-29T15:01:44.173Z,32.06
2022-08-29T15:04:12.023Z,32.96
2022-08-29T15:06:41.869Z,34.47
2022-08-29T15:09:10.312Z,32.61
2022-08-29T15:11:39.585Z,33.54
2022-08-29T15:14:08.740Z,35.37
2022-08-29T15:16:36.612Z,35.48
2022-08-29T15:21:52.523Z,36.12
2022-08-29T15:24:20.368Z,33.76
2022-08-29T15:26:49.710Z,36.24
2022-08-29T15:29:17.374Z,36.49
2022-08-29T15:31:46.123Z,32.69
2022-08-29T15:34:14.043Z,36.04
2022-08-29T15:36:41.852Z,31.09
2022-08-29T15:39:10.792Z,30.24
2022-08-29T15:41:40.396Z,29.44
2022-08-29T15:44:10.161Z,27.44
2022-08-29T15:46:38.462Z,26.98
2022-08-29T15:49:18.505Z,27.16
2022-08-29T15:51:47.638Z,26.79
2022-08-29T15:54:16.068Z,26.19
2022-08-29T15:56:46.609Z,26.04
2022-08-29T15:59:18.117Z,25.48
2022-08-29T16:01:48.100Z,25.32
2022-08-29T16:04:17.257Z,25.27
2022-08-29T16:06:45.082Z,25.23
2022-08-29T16:09:15.914Z,25.05
2022-08-29T16:11:44.913Z,25.22
2022-08-29T16:17:04.645Z,25.07
2022-08-29T16:19:32.872Z,25.06
2022-08-29T16:22:05.343Z,24.77
2022-08-29T16:24:36.070Z,27.51
2022-08-29T16:27:03.918Z,30.14
2022-08-29T16:29:33.891Z,31.41
2022-08-29T16:32:03.539Z,33.56
2022-08-29T16:34:31.180Z,32.09
2022-08-29T16:37:00.901Z,33.73
2022-08-29T16:39:30.027Z,30.67
2022-08-29T16:41:58.005Z,30.92
2022-08-29T16:44:27.746Z,31.38
2022-08-29T16:46:56.378Z,29.75
2022-08-29T16:49:26.008Z,28.88
2022-08-29T16:51:53.906Z,28.03
2022-08-29T16:54:21.711Z,27.79
2022-08-29T16:56:50.476Z,26.95
2022-08-29T16:59:18.275Z,26.61
2022-08-29T17:01:48.264Z,26.28
2022-08-29T17:04:19.454Z,25.50
2022-08-29T17:06:49.136Z,25.40
2022-08-29T17:09:16.517Z,25.17
2022-08-29T17:11:44.807Z,25.40
2022-08-29T17:14:11.992Z,26.02
2022-08-29T17:16:40.489Z,26.26
2022-08-29T17:19:08.827Z,26.64
2022-08-29T17:21:37.689Z,27.96
2022-08-29T17:24:08.109Z,27.17
2022-08-29T17:26:40.790Z,26.49
2022-08-29T17:29:10.727Z,25.56
2022-08-29T17:31:39.177Z,25.68
2022-08-29T17:34:08.615Z,25.33
2022-08-29T17:36:37.802Z,25.04
2022-08-29T17:39:07.929Z,25.11
2022-08-29T17:41:37.175Z,24.63
2022-08-29T17:44:05.838Z,24.39
2022-08-29T17:46:34.056Z,24.20
2022-08-29T17:50:03.373Z,23.77
2022-08-29T17:52:31.402Z,23.60
2022-08-29T17:55:07.181Z,23.34
2022-08-29T17:57:35.842Z,23.40
2022-08-29T18:00:04.098Z,23.24
2022-08-29T18:02:34.116Z,23.09
2022-08-29T18:05:02.412Z,22.93
2022-08-29T18:07:31.323Z,22.44
2022-08-29T18:10:03.914Z,22.18
2022-08-29T18:12:32.004Z,21.98
2022-08-29T18:15:00.672Z,21.66
2022-08-29T18:17:29.072Z,21.11
2022-08-29T18:19:59.384Z,21.01
2022-08-29T18:22:27.988Z,20.86
2022-08-29T18:24:56.095Z,20.61
2022-08-29T18:27:26.418Z,20.42
2022-08-29T18:29:55.570Z,20.16
2022-08-29T18:32:26.101Z,20.01
2022-08-29T18:35:00.520Z,19.71
2022-08-29T18:37:29.839Z,19.53
2022-08-29T18:39:57.930Z,19.49
2022-08-29T18:42:39.821Z,19.16
2022-08-29T18:45:10.921Z,19.26
2022-08-29T18:47:38.955Z,19.13
2022-08-29T18:50:25.475Z,18.90
2022-08-29T18:52:54.683Z,18.86
2022-08-29T18:55:24.004Z,18.68
2022-08-29T18:57:54.587Z,18.59
2022-08-29T19:00:22.796Z,18.54
2022-08-29T19:02:50.642Z,18.38
2022-08-29T19:05:18.916Z,18.28
2022-08-29T19:07:46.913Z,18.03
2022-08-29T19:10:15.397Z,18.12
2022-08-29T19:12:44.164Z,17.74
2022-08-29T19:15:18.434Z,17.88
2022-08-29T19:17:46.819Z,17.86
2022-08-29T19:20:34.406Z,17.78
2022-08-29T19:23:03.870Z,17.62
2022-08-29T19:25:33.752Z,17.56
2022-08-29T19:28:03.637Z,17.30
2022-08-29T19:30:33.297Z,17.33
2022-08-29T19:33:03.165Z,16.97
2022-08-29T19:35:31.135Z,17.27
2022-08-29T19:39:00.307Z,16.90
2022-08-29T19:41:28.215Z,16.72
2022-08-29T19:43:56.365Z,16.65
2022-08-29T19:46:31.248Z,16.70
2022-08-29T19:48:59.949Z,16.42
2022-08-29T19:51:29.859Z,16.18
2022-08-29T19:53:57.665Z,16.19
2022-08-29T19:56:25.576Z,15.86
2022-08-29T19:58:54.669Z,15.83
2022-08-29T20:01:22.578Z,15.71
2022-08-29T20:03:52.343Z,15.43
2022-08-29T20:06:20.700Z,16.37
2022-08-29T20:08:49.187Z,16.52
2022-08-29T20:11:20.931Z,16.66
2022-08-29T20:13:51.166Z,16.60
2022-08-29T20:16:22.377Z,16.49
2022-08-29T20:18:52.285Z,16.70
2022-08-29T20:21:20.519Z,16.40
2022-08-29T20:23:50.483Z,16.45
2022-08-29T20:26:20.970Z,16.49
2022-08-29T20:28:49.803Z,16.29
2022-08-29T20:31:17.577Z,16.20
2022-08-29T20:33:47.380Z,16.23
2022-08-29T20:36:39.093Z,16.24
2022-08-29T20:39:08.524Z,16.11
2022-08-29T20:41:37.268Z,16.10
2022-08-29T20:44:07.737Z,16.01
2022-08-29T20:46:39.619Z,16.07
2022-08-29T20:49:07.803Z,16.04
2022-08-29T20:51:37.691Z,15.98
2022-08-29T20:54:06.314Z,15.98
2022-08-29T20:56:34.101Z,15.94
2022-08-29T20:59:02.708Z,15.96
2022-08-29T21:01:33.122Z,15.91
2022-08-29T21:04:20.805Z,15.74
2022-08-29T21:06:50.907Z,15.69
2022-08-29T21:09:19.599Z,15.69
2022-08-29T21:11:47.332Z,15.62
2022-08-29T21:14:15.067Z,15.68
2022-08-29T21:16:44.638Z,15.72
2022-08-29T21:19:12.861Z,15.91
2022-08-29T21:21:42.157Z,15.76
2022-08-29T21:24:11.495Z,15.80
2022-08-29T21:26:40.303Z,15.85
2022-08-29T21:29:09.314Z,15.69
2022-08-29T21:31:38.268Z,15.52
2022-08-29T21:34:07.247Z,15.53
2022-08-29T21:36:36.755Z,15.43
2022-08-29T21:39:06.745Z,15.38
2022-08-29T21:41:39.182Z,15.43
2022-08-29T21:44:07.377Z,15.37
2022-08-29T21:46:37.289Z,15.23
2022-08-29T21:49:07.060Z,15.11
2022-08-29T21:51:36.629Z,15.03
2022-08-29T21:54:07.479Z,15.25
2022-08-29T21:56:39.664Z,15.18
2022-08-29T21:59:07.983Z,15.12
2022-08-29T22:01:39.026Z,15.04
2022-08-29T22:04:10.854Z,15.05
2022-08-29T22:06:41.269Z,15.01
2022-08-29T22:09:10.539Z,14.92
2022-08-29T22:11:39.931Z,14.88
2022-08-29T22:14:09.830Z,14.81
2022-08-29T22:16:37.383Z,14.79
2022-08-29T22:19:09.696Z,14.76
2022-08-29T22:21:39.458Z,14.77
2022-08-29T22:24:07.835Z,14.81
2022-08-29T22:26:36.992Z,14.56
2022-08-29T22:29:06.979Z,14.65
2022-08-29T22:31:35.265Z,14.55
2022-08-29T22:34:05.400Z,14.52
2022-08-29T22:36:34.275Z,14.49
2022-08-29T22:39:03.085Z,14.52
2022-08-29T22:41:31.314Z,14.37
2022-08-29T22:46:52.470Z,14.47
2022-08-29T22:49:20.332Z,14.38
2022-08-29T22:51:48.930Z,14.37
2022-08-29T22:54:34.270Z,14.35
2022-08-29T22:57:04.127Z,14.38
2022-08-29T22:59:33.436Z,14.29
2022-08-29T23:02:03.381Z,14.32
2022-08-29T23:04:31.542Z,14.22
2022-08-29T23:07:00.124Z,14.28
2022-08-29T23:09:33.515Z,14.22
2022-08-29T23:12:04.887Z,14.34
2022-08-29T23:14:33.067Z,14.49
2022-08-29T23:17:02.497Z,14.41
2022-08-29T23:19:31.289Z,14.48
2022-08-29T23:21:59.418Z,14.49
2022-08-29T23:24:30.152Z,14.31
2022-08-29T23:26:58.041Z,14.44
2022-08-29T23:29:26.018Z,14.20
2022-08-29T23:31:53.866Z,14.14
2022-08-29T23:34:24.252Z,14.12
2022-08-29T23:36:51.972Z,14.13
2022-08-29T23:39:20.021Z,14.09
2022-08-29T23:41:47.849Z,14.09
2022-08-29T23:44:16.643Z,13.92
2022-08-29T23:46:45.740Z,13.98
2022-08-29T23:49:13.657Z,13.89
2022-08-29T23:51:43.229Z,13.94
2022-08-29T23:54:11.067Z,13.83
2022-08-29T23:56:38.898Z,13.84
2022-08-29T23:59:06.892Z,13.75
